sensor_id;sensor_type;location;lat;lon;timestamp;pressure;altitude;pressure_sealevel;temperature;humidity
51460;BME280;37534;39.772;2.718;2023-02-04T00:01:46;102742.25;;;2.91;100.00
51460;BME280;37534;39.772;2.718;2023-02-04T00:04:12;102743.88;;;2.89;100.00
51460;BME280;37534;39.772;2.718;2023-02-04T00:06:38;102734.31;;;2.83;100.00
51460;BME280;37534;39.772;2.718;2023-02-04T00:09:04;102732.34;;;2.76;100.00
51460;BME280;37534;39.772;2.718;2023-02-04T00:11:30;102714.16;;;2.66;100.00
51460;BME280;37534;39.772;2.718;2023-02-04T00:13:56;102719.66;;;2.77;100.00
51460;BME280;37534;39.772;2.718;2023-02-04T00:16:21;102717.28;;;2.82;100.00
51460;BME280;37534;39.772;2.718;2023-02-04T00:18:47;102719.66;;;2.77;100.00
51460;BME280;37534;39.772;2.718;2023-02-04T00:21:12;102722.88;;;2.73;100.00
51460;BME280;37534;39.772;2.718;2023-02-04T00:23:40;102713.25;;;2.66;100.00
51460;BME280;37534;39.772;2.718;2023-02-04T00:26:06;102716.69;;;2.66;100.00
51460;BME280;37534;39.772;2.718;2023-02-04T00:28:32;102696.91;;;2.61;100.00
51460;BME280;37534;39.772;2.718;2023-02-04T00:30:57;102713.16;;;2.85;100.00
51460;BME280;37534;39.772;2.718;2023-02-04T00:33:23;102708.75;;;2.81;100.00
51460;BME280;37534;39.772;2.718;2023-02-04T00:35:48;102697.88;;;2.63;100.00
51460;BME280;37534;39.772;2.718;2023-02-04T00:38:14;102701.16;;;2.60;100.00
51460;BME280;37534;39.772;2.718;2023-02-04T00:40:40;102695.78;;;2.53;100.00
51460;BME280;37534;39.772;2.718;2023-02-04T00:43:05;102696.69;;;2.55;100.00
51460;BME280;37534;39.772;2.718;2023-02-04T00:45:31;102693.09;;;2.50;100.00
51460;BME280;37534;39.772;2.718;2023-02-04T00:47:56;102695.78;;;2.53;100.00
51460;BME280;37534;39.772;2.718;2023-02-04T00:50:22;102688.63;;;2.44;100.00
51460;BME280;37534;39.772;2.718;2023-02-04T00:52:48;102703.16;;;2.46;100.00
51460;BME280;37534;39.772;2.718;2023-02-04T00:55:14;102693.28;;;2.54;100.00
51460;BME280;37534;39.772;2.718;2023-02-04T00:57:41;102683.03;;;2.53;100.00
51460;BME280;37534;39.772;2.718;2023-02-04T01:00:08;102675.75;;;2.62;100.00
51460;BME280;37534;39.772;2.718;2023-02-04T01:02:34;102668.94;;;2.62;100.00
51460;BME280;37534;39.772;2.718;2023-02-04T01:04:59;102688.69;;;2.68;100.00
51460;BME280;37534;39.772;2.718;2023-02-04T01:07:25;102682.53;;;2.61;100.00
51460;BME280;37534;39.772;2.718;2023-02-04T01:09:50;102670.59;;;2.39;100.00
51460;BME280;37534;39.772;2.718;2023-02-04T01:12:16;102703.28;;;2.50;100.00
51460;BME280;37534;39.772;2.718;2023-02-04T01:14:41;102683.59;;;2.45;100.00
51460;BME280;37534;39.772;2.718;2023-02-04T01:17:07;102685.50;;;2.51;100.00
51460;BME280;37534;39.772;2.718;2023-02-04T01:19:32;102693.22;;;2.53;100.00
51460;BME280;37534;39.772;2.718;2023-02-04T01:21:58;102703.00;;;2.64;100.00
51460;BME280;37534;39.772;2.718;2023-02-04T01:24:23;102683.97;;;2.55;100.00
51460;BME280;37534;39.772;2.718;2023-02-04T01:26:49;102697.19;;;2.46;100.00
51460;BME280;37534;39.772;2.718;2023-02-04T01:29:14;102689.88;;;2.33;100.00
51460;BME280;37534;39.772;2.718;2023-02-04T01:31:40;102693.53;;;2.39;100.00
51460;BME280;37534;39.772;2.718;2023-02-04T01:34:10;102690.47;;;2.48;100.00
51460;BME280;37534;39.772;2.718;2023-02-04T01:36:35;102697.97;;;2.43;100.00
51460;BME280;37534;39.772;2.718;2023-02-04T01:39:01;102662.81;;;2.14;100.00
51460;BME280;37534;39.772;2.718;2023-02-04T01:41:27;102680.63;;;2.35;100.00
51460;BME280;37534;39.772;2.718;2023-02-04T01:43:53;102679.44;;;2.26;100.00
51460;BME280;37534;39.772;2.718;2023-02-04T01:46:19;102684.47;;;2.25;100.00
51460;BME280;37534;39.772;2.718;2023-02-04T01:48:44;102682.69;;;2.22;100.00
51460;BME280;37534;39.772;2.718;2023-02-04T01:51:13;102676.63;;;2.19;100.00
51460;BME280;37534;39.772;2.718;2023-02-04T01:53:40;102677.75;;;2.27;100.00
51460;BME280;37534;39.772;2.718;2023-02-04T01:56:18;102693.66;;;2.42;100.00
51460;BME280;37534;39.772;2.718;2023-02-04T01:58:45;102691.13;;;2.42;100.00
51460;BME280;37534;39.772;2.718;2023-02-04T02:01:13;102691.19;;;2.44;100.00
51460;BME280;37534;39.772;2.718;2023-02-04T02:03:39;102698.91;;;2.45;100.00
51460;BME280;37534;39.772;2.718;2023-02-04T02:06:06;102704.59;;;2.40;100.00
51460;BME280;37534;39.772;2.718;2023-02-04T02:08:34;102688.84;;;2.27;100.00
51460;BME280;37534;39.772;2.718;2023-02-04T02:11:01;102669.28;;;2.05;100.00
51460;BME280;37534;39.772;2.718;2023-02-04T02:13:27;102688.03;;;2.07;100.00
51460;BME280;37534;39.772;2.718;2023-02-04T02:15:52;102688.19;;;1.91;100.00
51460;BME280;37534;39.772;2.718;2023-02-04T02:18:18;102690.00;;;2.15;100.00
51460;BME280;37534;39.772;2.718;2023-02-04T02:20:44;102685.34;;;2.25;100.00
51460;BME280;37534;39.772;2.718;2023-02-04T02:23:18;102696.53;;;2.29;100.00
51460;BME280;37534;39.772;2.718;2023-02-04T02:25:46;102669.69;;;1.95;100.00
51460;BME280;37534;39.772;2.718;2023-02-04T02:28:15;102694.59;;;2.02;100.00
51460;BME280;37534;39.772;2.718;2023-02-04T02:30:42;102672.94;;;1.91;100.00
51460;BME280;37534;39.772;2.718;2023-02-04T02:33:28;102638.81;;;1.66;100.00
51460;BME280;37534;39.772;2.718;2023-02-04T02:35:57;102642.88;;;1.82;100.00
51460;BME280;37534;39.772;2.718;2023-02-04T02:38:51;102637.09;;;1.86;100.00
51460;BME280;37534;39.772;2.718;2023-02-04T02:41:47;102590.94;;;1.37;100.00
51460;BME280;37534;39.772;2.718;2023-02-04T02:44:35;102669.47;;;2.10;100.00
51460;BME280;37534;39.772;2.718;2023-02-04T02:47:01;102629.53;;;1.88;100.00
51460;BME280;37534;39.772;2.718;2023-02-04T02:49:32;102590.78;;;1.53;100.00
51460;BME280;37534;39.772;2.718;2023-02-04T02:52:01;102576.50;;;1.36;100.00
51460;BME280;37534;39.772;2.718;2023-02-04T02:54:31;102673.00;;;1.93;100.00
51460;BME280;37534;39.772;2.718;2023-02-04T02:57:23;102671.44;;;1.96;100.00
51460;BME280;37534;39.772;2.718;2023-02-04T03:00:05;102634.03;;;1.74;100.00
51460;BME280;37534;39.772;2.718;2023-02-04T03:03:07;102572.13;;;1.33;100.00
51460;BME280;37534;39.772;2.718;2023-02-04T03:05:53;102624.94;;;1.79;100.00
51460;BME280;37534;39.772;2.718;2023-02-04T03:08:24;102593.31;;;1.74;100.00
51460;BME280;37534;39.772;2.718;2023-02-04T03:10:57;102631.28;;;1.89;100.00
51460;BME280;37534;39.772;2.718;2023-02-04T03:13:39;102536.91;;;1.21;100.00
51460;BME280;37534;39.772;2.718;2023-02-04T03:16:13;102562.72;;;1.30;100.00
51460;BME280;37534;39.772;2.718;2023-02-04T03:18:44;102583.31;;;1.37;100.00
51460;BME280;37534;39.772;2.718;2023-02-04T03:21:10;102591.72;;;1.55;100.00
51460;BME280;37534;39.772;2.718;2023-02-04T03:24:03;102553.28;;;1.28;100.00
51460;BME280;37534;39.772;2.718;2023-02-04T03:26:37;102626.97;;;1.88;100.00
51460;BME280;37534;39.772;2.718;2023-02-04T03:29:20;102550.25;;;1.37;100.00
51460;BME280;37534;39.772;2.718;2023-02-04T03:31:54;102608.94;;;1.82;100.00
51460;BME280;37534;39.772;2.718;2023-02-04T03:34:24;102584.97;;;1.77;100.00
51460;BME280;37534;39.772;2.718;2023-02-04T03:36:50;102583.59;;;1.64;100.00
51460;BME280;37534;39.772;2.718;2023-02-04T03:39:23;102532.56;;;1.19;100.00
51460;BME280;37534;39.772;2.718;2023-02-04T03:42:01;102554.97;;;1.27;100.00
51460;BME280;37534;39.772;2.718;2023-02-04T03:44:32;102577.31;;;1.56;100.00
51460;BME280;37534;39.772;2.718;2023-02-04T03:47:05;102536.13;;;1.43;100.00
51460;BME280;37534;39.772;2.718;2023-02-04T03:49:33;102552.31;;;1.45;100.00
51460;BME280;37534;39.772;2.718;2023-02-04T03:52:02;102567.06;;;1.54;100.00
51460;BME280;37534;39.772;2.718;2023-02-04T03:54:31;102590.06;;;1.77;100.00
51460;BME280;37534;39.772;2.718;2023-02-04T03:56:59;102542.75;;;1.40;100.00
51460;BME280;37534;39.772;2.718;2023-02-04T03:59:36;102568.25;;;1.41;100.00
51460;BME280;37534;39.772;2.718;2023-02-04T04:02:34;102602.81;;;1.57;100.00
51460;BME280;37534;39.772;2.718;2023-02-04T04:05:27;102566.00;;;1.49;100.00
51460;BME280;37534;39.772;2.718;2023-02-04T04:08:00;102566.28;;;1.55;100.00
51460;BME280;37534;39.772;2.718;2023-02-04T04:10:34;102625.31;;;1.88;100.00
51460;BME280;37534;39.772;2.718;2023-02-04T04:13:07;102617.56;;;1.85;100.00
51460;BME280;37534;39.772;2.718;2023-02-04T04:15:53;102614.09;;;1.83;100.00
51460;BME280;37534;39.772;2.718;2023-02-04T04:18:50;102593.03;;;1.66;100.00
51460;BME280;37534;39.772;2.718;2023-02-04T04:21:50;102516.94;;;1.30;100.00
51460;BME280;37534;39.772;2.718;2023-02-04T04:24:29;102489.41;;;1.20;100.00
51460;BME280;37534;39.772;2.718;2023-02-04T04:26:58;102536.38;;;1.49;100.00
51460;BME280;37534;39.772;2.718;2023-02-04T04:29:51;102533.69;;;1.25;100.00
51460;BME280;37534;39.772;2.718;2023-02-04T04:32:38;102538.16;;;1.31;100.00
51460;BME280;37534;39.772;2.718;2023-02-04T04:35:27;102550.22;;;1.35;100.00
51460;BME280;37534;39.772;2.718;2023-02-04T04:38:16;102519.22;;;1.24;100.00
51460;BME280;37534;39.772;2.718;2023-02-04T04:40:46;102592.78;;;1.60;100.00
51460;BME280;37534;39.772;2.718;2023-02-04T04:43:26;102491.75;;;0.94;100.00
51460;BME280;37534;39.772;2.718;2023-02-04T04:46:00;102524.00;;;1.17;100.00
51460;BME280;37534;39.772;2.718;2023-02-04T04:48:32;102597.38;;;1.48;100.00
51460;BME280;37534;39.772;2.718;2023-02-04T04:51:09;102555.66;;;1.23;100.00
51460;BME280;37534;39.772;2.718;2023-02-04T04:54:15;102585.44;;;1.47;100.00
51460;BME280;37534;39.772;2.718;2023-02-04T04:57:00;102537.16;;;1.27;100.00
51460;BME280;37534;39.772;2.718;2023-02-04T04:59:41;102563.97;;;1.61;100.00
51460;BME280;37534;39.772;2.718;2023-02-04T05:02:15;102517.19;;;1.37;100.00
51460;BME280;37534;39.772;2.718;2023-02-04T05:04:46;102586.78;;;1.58;100.00
51460;BME280;37534;39.772;2.718;2023-02-04T05:07:12;102522.53;;;1.22;100.00
51460;BME280;37534;39.772;2.718;2023-02-04T05:09:38;102537.03;;;1.24;100.00
51460;BME280;37534;39.772;2.718;2023-02-04T05:12:51;102566.34;;;1.36;100.00
51460;BME280;37534;39.772;2.718;2023-02-04T05:15:36;102470.69;;;0.78;100.00
51460;BME280;37534;39.772;2.718;2023-02-04T05:18:24;102477.97;;;0.89;100.00
51460;BME280;37534;39.772;2.718;2023-02-04T05:21:02;102477.09;;;1.10;100.00
51460;BME280;37534;39.772;2.718;2023-02-04T05:23:36;102565.34;;;1.53;100.00
51460;BME280;37534;39.772;2.718;2023-02-04T05:26:07;102505.28;;;1.14;100.00
51460;BME280;37534;39.772;2.718;2023-02-04T05:28:34;102551.28;;;1.21;100.00
51460;BME280;37534;39.772;2.718;2023-02-04T05:31:01;102508.59;;;1.13;100.00
51460;BME280;37534;39.772;2.718;2023-02-04T05:33:35;102539.06;;;1.12;100.00
51460;BME280;37534;39.772;2.718;2023-02-04T05:36:31;102493.63;;;0.79;100.00
51460;BME280;37534;39.772;2.718;2023-02-04T05:39:04;102494.41;;;0.78;100.00
51460;BME280;37534;39.772;2.718;2023-02-04T05:41:41;102556.06;;;1.13;100.00
51460;BME280;37534;39.772;2.718;2023-02-04T05:44:28;102572.13;;;1.33;100.00
51460;BME280;37534;39.772;2.718;2023-02-04T05:47:39;102571.97;;;1.28;100.00
51460;BME280;37534;39.772;2.718;2023-02-04T05:50:24;102501.91;;;0.94;100.00
51460;BME280;37534;39.772;2.718;2023-02-04T05:52:59;102470.38;;;0.70;100.00
51460;BME280;37534;39.772;2.718;2023-02-04T05:55:33;102551.78;;;1.12;100.00
51460;BME280;37534;39.772;2.718;2023-02-04T05:57:59;102505.78;;;0.86;100.00
51460;BME280;37534;39.772;2.718;2023-02-04T06:00:32;102507.31;;;1.02;100.00
51460;BME280;37534;39.772;2.718;2023-02-04T06:03:27;102567.69;;;1.48;100.00
51460;BME280;37534;39.772;2.718;2023-02-04T06:06:13;102484.19;;;0.96;100.00
51460;BME280;37534;39.772;2.718;2023-02-04T06:08:44;102526.59;;;1.18;100.00
51460;BME280;37534;39.772;2.718;2023-02-04T06:11:10;102477.31;;;0.74;100.00
51460;BME280;37534;39.772;2.718;2023-02-04T06:13:39;102530.78;;;0.97;100.00
51460;BME280;37534;39.772;2.718;2023-02-04T06:16:18;102454.84;;;0.44;100.00
51460;BME280;37534;39.772;2.718;2023-02-04T06:19:10;102487.59;;;0.77;100.00
51460;BME280;37534;39.772;2.718;2023-02-04T06:24:51;102523.38;;;1.22;100.00
51460;BME280;37534;39.772;2.718;2023-02-04T06:27:20;102477.28;;;0.93;100.00
51460;BME280;37534;39.772;2.718;2023-02-04T06:29:59;102454.50;;;0.75;100.00
51460;BME280;37534;39.772;2.718;2023-02-04T06:32:38;102518.22;;;1.00;100.00
51460;BME280;37534;39.772;2.718;2023-02-04T06:35:11;102486.38;;;0.88;100.00
51460;BME280;37534;39.772;2.718;2023-02-04T06:37:48;102504.81;;;1.04;100.00
51460;BME280;37534;39.772;2.718;2023-02-04T06:40:25;102565.19;;;1.29;100.00
51460;BME280;37534;39.772;2.718;2023-02-04T06:42:57;102493.31;;;0.71;100.00
51460;BME280;37534;39.772;2.718;2023-02-04T06:45:31;102472.91;;;0.70;100.00
51460;BME280;37534;39.772;2.718;2023-02-04T06:48:11;102493.31;;;0.71;100.00
51460;BME280;37534;39.772;2.718;2023-02-04T06:50:53;102485.22;;;0.80;100.00
51460;BME280;37534;39.772;2.718;2023-02-04T06:53:22;102519.81;;;0.98;100.00
51460;BME280;37534;39.772;2.718;2023-02-04T06:55:58;102508.06;;;0.80;100.00
51460;BME280;37534;39.772;2.718;2023-02-04T06:58:38;102559.81;;;1.21;100.00
51460;BME280;37534;39.772;2.718;2023-02-04T07:01:04;102505.09;;;0.90;100.00
51460;BME280;37534;39.772;2.718;2023-02-04T07:03:38;102479.69;;;0.90;100.00
51460;BME280;37534;39.772;2.718;2023-02-04T07:06:22;102470.72;;;0.99;100.00
51460;BME280;37534;39.772;2.718;2023-02-04T07:08:53;102486.22;;;0.84;100.00
51460;BME280;37534;39.772;2.718;2023-02-04T07:11:22;102458.22;;;0.63;100.00
51460;BME280;37534;39.772;2.718;2023-02-04T07:13:54;102507.53;;;0.87;100.00
51460;BME280;37534;39.772;2.718;2023-02-04T07:16:53;102489.06;;;0.91;100.00
51460;BME280;37534;39.772;2.718;2023-02-04T07:19:30;102488.38;;;0.95;100.00
51460;BME280;37534;39.772;2.718;2023-02-04T07:25:45;102455.56;;;0.81;100.00
51460;BME280;37534;39.772;2.718;2023-02-04T07:28:18;102488.88;;;1.08;100.00
51460;BME280;37534;39.772;2.718;2023-02-04T07:33:54;102502.44;;;1.07;100.00
51460;BME280;37534;39.772;2.718;2023-02-04T07:36:35;102470.88;;;0.82;100.00
51460;BME280;37534;39.772;2.718;2023-02-04T07:39:17;102500.53;;;1.03;100.00
51460;BME280;37534;39.772;2.718;2023-02-04T07:41:46;102466.41;;;0.96;100.00
51460;BME280;37534;39.772;2.718;2023-02-04T07:44:25;102471.22;;;1.11;100.00
51460;BME280;37534;39.772;2.718;2023-02-04T07:47:08;102497.97;;;1.43;100.00
51460;BME280;37534;39.772;2.718;2023-02-04T07:50:08;102527.00;;;1.69;100.00
51460;BME280;37534;39.772;2.718;2023-02-04T07:52:34;102499.81;;;1.47;100.00
51460;BME280;37534;39.772;2.718;2023-02-04T07:55:03;102558.31;;;1.89;100.00
51460;BME280;37534;39.772;2.718;2023-02-04T07:57:34;102547.84;;;1.82;100.00
51460;BME280;37534;39.772;2.718;2023-02-04T08:00:08;102581.91;;;2.06;100.00
51460;BME280;37534;39.772;2.718;2023-02-04T08:02:40;102545.84;;;1.96;100.00
51460;BME280;37534;39.772;2.718;2023-02-04T08:05:07;102527.72;;;1.88;100.00
51460;BME280;37534;39.772;2.718;2023-02-04T08:07:44;102528.59;;;1.88;100.00
51460;BME280;37534;39.772;2.718;2023-02-04T08:10:22;102515.47;;;1.78;100.00
51460;BME280;37534;39.772;2.718;2023-02-04T08:12:51;102492.66;;;1.81;100.00
51460;BME280;37534;39.772;2.718;2023-02-04T08:15:34;102535.81;;;2.00;100.00
51460;BME280;37534;39.772;2.718;2023-02-04T08:18:10;102512.50;;;1.89;100.00
51460;BME280;37534;39.772;2.718;2023-02-04T08:20:44;102556.72;;;2.14;100.00
51460;BME280;37534;39.772;2.718;2023-02-04T08:23:11;102560.03;;;2.34;100.00
51460;BME280;37534;39.772;2.718;2023-02-04T08:25:40;102515.34;;;1.97;100.00
51460;BME280;37534;39.772;2.718;2023-02-04T08:28:14;102554.19;;;2.14;100.00
51460;BME280;37534;39.772;2.718;2023-02-04T08:30:57;102519.50;;;2.18;100.00
51460;BME280;37534;39.772;2.718;2023-02-04T08:33:27;102470.09;;;1.90;100.00
51460;BME280;37534;39.772;2.718;2023-02-04T08:35:58;102499.00;;;2.15;100.00
51460;BME280;37534;39.772;2.718;2023-02-04T08:38:38;102465.47;;;2.02;100.00
51460;BME280;37534;39.772;2.718;2023-02-04T08:41:13;102492.09;;;3.07;100.00
51460;BME280;37534;39.772;2.718;2023-02-04T08:43:44;102467.84;;;4.97;100.00
51460;BME280;37534;39.772;2.718;2023-02-04T08:46:18;102461.16;;;6.57;100.00
51460;BME280;37534;39.772;2.718;2023-02-04T08:48:46;102504.28;;;9.40;100.00
51460;BME280;37534;39.772;2.718;2023-02-04T08:51:16;102484.31;;;11.58;92.30
51460;BME280;37534;39.772;2.718;2023-02-04T08:53:50;102526.00;;;13.97;80.24
51460;BME280;37534;39.772;2.718;2023-02-04T08:59:02;102546.94;;;15.15;58.87
51460;BME280;37534;39.772;2.718;2023-02-04T09:01:33;102529.28;;;16.68;55.04
51460;BME280;37534;39.772;2.718;2023-02-04T09:04:07;102485.66;;;17.14;49.21
51460;BME280;37534;39.772;2.718;2023-02-04T09:06:44;102525.22;;;18.28;46.60
51460;BME280;37534;39.772;2.718;2023-02-04T09:09:36;102485.78;;;19.44;42.17
51460;BME280;37534;39.772;2.718;2023-02-04T09:12:07;102542.22;;;21.36;40.48
51460;BME280;37534;39.772;2.718;2023-02-04T09:14:36;102508.25;;;21.53;38.77
51460;BME280;37534;39.772;2.718;2023-02-04T09:17:09;102497.78;;;21.31;38.80
51460;BME280;37534;39.772;2.718;2023-02-04T09:19:38;102544.84;;;22.16;36.67
51460;BME280;37534;39.772;2.718;2023-02-04T09:22:29;102505.13;;;22.78;36.21
51460;BME280;37534;39.772;2.718;2023-02-04T09:25:06;102550.25;;;23.24;36.45
51460;BME280;37534;39.772;2.718;2023-02-04T09:27:38;102528.94;;;23.29;35.65
51460;BME280;37534;39.772;2.718;2023-02-04T09:30:15;102554.25;;;24.00;35.60
51460;BME280;37534;39.772;2.718;2023-02-04T09:32:49;102491.88;;;20.63;38.68
51460;BME280;37534;39.772;2.718;2023-02-04T09:35:17;102550.78;;;22.01;35.97
51460;BME280;37534;39.772;2.718;2023-02-04T09:37:51;102521.44;;;23.39;35.17
51460;BME280;37534;39.772;2.718;2023-02-04T09:40:18;102526.38;;;24.12;32.68
51460;BME280;37534;39.772;2.718;2023-02-04T09:42:57;102570.81;;;25.13;31.49
51460;BME280;37534;39.772;2.718;2023-02-04T09:45:36;102582.09;;;26.33;31.24
51460;BME280;37534;39.772;2.718;2023-02-04T09:48:11;102540.16;;;27.22;29.15
51460;BME280;37534;39.772;2.718;2023-02-04T09:50:41;102534.34;;;27.81;27.30
51460;BME280;37534;39.772;2.718;2023-02-04T09:53:31;102540.19;;;28.23;27.23
51460;BME280;37534;39.772;2.718;2023-02-04T09:56:02;102570.41;;;27.58;26.70
51460;BME280;37534;39.772;2.718;2023-02-04T09:58:32;102502.34;;;24.80;29.88
51460;BME280;37534;39.772;2.718;2023-02-04T10:01:26;102564.22;;;26.79;29.87
51460;BME280;37534;39.772;2.718;2023-02-04T10:04:03;102534.47;;;27.41;28.49
51460;BME280;37534;39.772;2.718;2023-02-04T10:06:41;102520.97;;;28.92;27.26
51460;BME280;37534;39.772;2.718;2023-02-04T10:09:15;102512.16;;;29.61;26.37
51460;BME280;37534;39.772;2.718;2023-02-04T10:11:47;102536.91;;;30.40;25.97
51460;BME280;37534;39.772;2.718;2023-02-04T10:14:21;102493.13;;;30.10;26.34
51460;BME280;37534;39.772;2.718;2023-02-04T10:16:57;102517.69;;;31.73;24.46
51460;BME280;37534;39.772;2.718;2023-02-04T10:19:33;102547.50;;;32.28;23.64
51460;BME280;37534;39.772;2.718;2023-02-04T10:22:06;102452.75;;;32.32;22.02
51460;BME280;37534;39.772;2.718;2023-02-04T10:24:42;102524.91;;;33.38;22.21
51460;BME280;37534;39.772;2.718;2023-02-04T10:30:44;102462.94;;;30.65;23.07
51460;BME280;37534;39.772;2.718;2023-02-04T10:33:45;102479.63;;;31.71;22.52
51460;BME280;37534;39.772;2.718;2023-02-04T10:36:23;102466.47;;;32.96;22.36
51460;BME280;37534;39.772;2.718;2023-02-04T10:39:01;102495.16;;;33.13;20.84
51460;BME280;37534;39.772;2.718;2023-02-04T10:41:33;102496.38;;;33.57;20.33
51460;BME280;37534;39.772;2.718;2023-02-04T10:44:18;102505.59;;;34.00;20.37
51460;BME280;37534;39.772;2.718;2023-02-04T10:50:14;102482.03;;;34.39;19.65
51460;BME280;37534;39.772;2.718;2023-02-04T10:52:47;102484.47;;;34.69;19.67
51460;BME280;37534;39.772;2.718;2023-02-04T10:55:22;102484.91;;;35.42;18.42
51460;BME280;37534;39.772;2.718;2023-02-04T10:58:02;102441.50;;;35.13;18.19
51460;BME280;37534;39.772;2.718;2023-02-04T11:00:35;102482.66;;;34.51;18.69
51460;BME280;37534;39.772;2.718;2023-02-04T11:03:32;102468.72;;;33.94;19.24
51460;BME280;37534;39.772;2.718;2023-02-04T11:06:00;102443.84;;;34.81;18.14
51460;BME280;37534;39.772;2.718;2023-02-04T11:08:41;102452.91;;;34.18;18.35
51460;BME280;37534;39.772;2.718;2023-02-04T11:11:21;102419.34;;;35.45;18.11
51460;BME280;37534;39.772;2.718;2023-02-04T11:16:48;102433.88;;;36.10;16.54
51460;BME280;37534;39.772;2.718;2023-02-04T11:19:41;102434.38;;;36.13;17.27
51460;BME280;37534;39.772;2.718;2023-02-04T11:22:45;102459.91;;;35.93;16.95
51460;BME280;37534;39.772;2.718;2023-02-04T11:25:35;102481.28;;;36.35;17.10
51460;BME280;37534;39.772;2.718;2023-02-04T11:28:24;102483.13;;;36.68;17.34
51460;BME280;37534;39.772;2.718;2023-02-04T11:37:35;102423.47;;;36.56;17.01
51460;BME280;37534;39.772;2.718;2023-02-04T11:43:14;102384.28;;;36.78;17.03
51460;BME280;37534;39.772;2.718;2023-02-04T11:45:45;102432.66;;;37.34;16.75
51460;BME280;37534;39.772;2.718;2023-02-04T11:48:14;102425.47;;;37.58;16.56
51460;BME280;37534;39.772;2.718;2023-02-04T11:51:34;102390.25;;;36.00;17.04
51460;BME280;37534;39.772;2.718;2023-02-04T11:54:04;102400.91;;;36.82;16.10
51460;BME280;37534;39.772;2.718;2023-02-04T11:56:42;102439.59;;;37.28;15.46
51460;BME280;37534;39.772;2.718;2023-02-04T11:59:12;102386.72;;;37.36;15.22
51460;BME280;37534;39.772;2.718;2023-02-04T12:01:48;102412.50;;;37.61;15.65
51460;BME280;37534;39.772;2.718;2023-02-04T12:04:31;102403.06;;;37.65;15.46
51460;BME280;37534;39.772;2.718;2023-02-04T12:07:04;102432.84;;;38.33;15.14
51460;BME280;37534;39.772;2.718;2023-02-04T12:09:35;102378.16;;;37.63;14.87
51460;BME280;37534;39.772;2.718;2023-02-04T12:12:23;102350.34;;;37.86;13.76
51460;BME280;37534;39.772;2.718;2023-02-04T12:15:00;102358.25;;;37.10;14.84
51460;BME280;37534;39.772;2.718;2023-02-04T12:17:31;102361.06;;;33.72;15.31
51460;BME280;37534;39.772;2.718;2023-02-04T12:20:03;102351.72;;;34.56;15.95
51460;BME280;37534;39.772;2.718;2023-02-04T12:22:36;102378.94;;;35.55;15.38
51460;BME280;37534;39.772;2.718;2023-02-04T12:25:10;102309.47;;;36.26;14.70
51460;BME280;37534;39.772;2.718;2023-02-04T12:28:05;102316.03;;;36.79;14.72
51460;BME280;37534;39.772;2.718;2023-02-04T12:30:41;102321.28;;;36.72;14.15
51460;BME280;37534;39.772;2.718;2023-02-04T12:33:11;102305.47;;;37.09;14.08
51460;BME280;37534;39.772;2.718;2023-02-04T12:35:42;102363.28;;;37.13;14.24
51460;BME280;37534;39.772;2.718;2023-02-04T12:38:09;102375.03;;;35.33;15.17
51460;BME280;37534;39.772;2.718;2023-02-04T12:40:41;102338.19;;;35.68;15.93
51460;BME280;37534;39.772;2.718;2023-02-04T12:43:15;102336.84;;;36.29;15.88
51460;BME280;37534;39.772;2.718;2023-02-04T12:45:48;102327.91;;;35.38;17.04
51460;BME280;37534;39.772;2.718;2023-02-04T12:48:31;102311.19;;;34.07;19.06
51460;BME280;37534;39.772;2.718;2023-02-04T12:51:01;102329.16;;;32.50;21.75
51460;BME280;37534;39.772;2.718;2023-02-04T12:53:37;102304.63;;;32.27;22.77
51460;BME280;37534;39.772;2.718;2023-02-04T12:56:31;102362.72;;;32.72;22.33
51460;BME280;37534;39.772;2.718;2023-02-04T12:59:05;102316.19;;;31.88;23.57
51460;BME280;37534;39.772;2.718;2023-02-04T13:01:31;102363.81;;;32.79;23.40
51460;BME280;37534;39.772;2.718;2023-02-04T13:04:00;102345.09;;;33.17;23.45
51460;BME280;37534;39.772;2.718;2023-02-04T13:06:26;102352.00;;;33.83;23.48
51460;BME280;37534;39.772;2.718;2023-02-04T13:08:51;102325.31;;;33.73;23.15
51460;BME280;37534;39.772;2.718;2023-02-04T13:11:22;102329.66;;;33.92;22.17
51460;BME280;37534;39.772;2.718;2023-02-04T13:13:51;102339.09;;;33.50;23.43
51460;BME280;37534;39.772;2.718;2023-02-04T13:16:19;102333.72;;;33.78;23.63
51460;BME280;37534;39.772;2.718;2023-02-04T13:18:47;102328.16;;;33.26;24.03
51460;BME280;37534;39.772;2.718;2023-02-04T13:21:16;102346.25;;;33.60;23.94
51460;BME280;37534;39.772;2.718;2023-02-04T13:23:42;102335.94;;;33.83;24.19
51460;BME280;37534;39.772;2.718;2023-02-04T13:26:27;102300.66;;;33.51;23.67
51460;BME280;37534;39.772;2.718;2023-02-04T13:29:05;102292.25;;;33.46;24.08
51460;BME280;37534;39.772;2.718;2023-02-04T13:31:34;102306.78;;;33.62;24.07
51460;BME280;37534;39.772;2.718;2023-02-04T13:34:07;102317.34;;;33.81;23.89
51460;BME280;37534;39.772;2.718;2023-02-04T13:36:36;102311.28;;;33.97;23.81
51460;BME280;37534;39.772;2.718;2023-02-04T13:39:09;102354.47;;;33.48;24.51
51460;BME280;37534;39.772;2.718;2023-02-04T13:41:51;102309.53;;;33.34;24.58
51460;BME280;37534;39.772;2.718;2023-02-04T13:44:22;102315.88;;;33.05;24.90
51460;BME280;37534;39.772;2.718;2023-02-04T13:46:51;102277.88;;;33.83;23.69
51460;BME280;37534;39.772;2.718;2023-02-04T13:49:24;102337.94;;;34.51;23.35
51460;BME280;37534;39.772;2.718;2023-02-04T13:51:52;102285.44;;;34.14;23.35
51460;BME280;37534;39.772;2.718;2023-02-04T13:54:42;102267.56;;;33.52;23.54
51460;BME280;37534;39.772;2.718;2023-02-04T13:57:13;102252.34;;;33.71;24.05
51460;BME280;37534;39.772;2.718;2023-02-04T13:59:39;102332.72;;;34.23;23.52
51460;BME280;37534;39.772;2.718;2023-02-04T14:02:07;102289.53;;;33.74;24.10